createdAt,value
2023-10-25T00:00:34.925Z,90.66
2023-10-25T00:03:01.633Z,90.97
2023-10-25T00:05:34.198Z,90.81
2023-10-25T00:08:00.749Z,90.83
2023-10-25T00:10:28.087Z,90.63
2023-10-25T00:12:57.008Z,90.37
2023-10-25T00:15:23.718Z,90.12
2023-10-25T00:17:50.395Z,90.22
2023-10-25T00:20:17.720Z,90.45
2023-10-25T00:22:46.201Z,90.10
2023-10-25T00:25:12.701Z,90.09
2023-10-25T00:27:39.282Z,89.72
2023-10-25T00:30:07.477Z,89.52
2023-10-25T00:32:34.017Z,89.64
2023-10-25T00:35:01.287Z,89.75
2023-10-25T00:37:27.764Z,89.99
2023-10-25T00:39:58.159Z,89.78
2023-10-25T00:42:25.387Z,89.56
2023-10-25T00:44:51.995Z,89.86
2023-10-25T00:47:18.622Z,89.77
2023-10-25T00:49:45.203Z,89.45
2023-10-25T00:52:11.996Z,89.64
2023-10-25T00:54:38.869Z,89.55
2023-10-25T00:57:05.617Z,90.21
2023-10-25T00:59:32.722Z,89.87
2023-10-25T01:02:01.037Z,90.29
2023-10-25T01:04:29.415Z,90.24
2023-10-25T01:06:56.686Z,90.13
2023-10-25T01:09:23.812Z,90.16
2023-10-25T01:11:50.822Z,90.06
2023-10-25T01:14:17.369Z,90.44
2023-10-25T01:16:43.954Z,90.46
2023-10-25T01:19:10.978Z,90.35
2023-10-25T01:21:38.152Z,90.38
2023-10-25T01:24:05.474Z,90.38
2023-10-25T01:26:32.224Z,90.75
2023-10-25T01:28:58.811Z,90.65
2023-10-25T01:31:25.383Z,90.37
2023-10-25T01:33:52.779Z,90.52
2023-10-25T01:36:20.136Z,90.37
2023-10-25T01:38:46.994Z,90.34
2023-10-25T01:41:17.306Z,90.22
2023-10-25T01:43:44.681Z,90.16
2023-10-25T01:46:14.440Z,90.46
2023-10-25T01:48:41.267Z,90.26
2023-10-25T01:51:07.993Z,90.72
2023-10-25T01:53:35.079Z,90.51
2023-10-25T01:56:04.199Z,90.62
2023-10-25T01:58:31.986Z,90.95
2023-10-25T02:01:01.122Z,90.94
2023-10-25T02:03:28.203Z,90.60
2023-10-25T02:05:54.909Z,90.85
2023-10-25T02:08:21.621Z,90.90
2023-10-25T02:10:50.562Z,90.60
2023-10-25T02:13:17.472Z,90.64
2023-10-25T02:15:44.369Z,90.80
2023-10-25T02:18:11.209Z,90.63
2023-10-25T02:20:37.955Z,90.49
2023-10-25T02:23:04.801Z,90.74
2023-10-25T02:25:31.494Z,90.79
2023-10-25T02:27:58.277Z,90.67
2023-10-25T02:30:25.321Z,90.76
2023-10-25T02:32:51.898Z,90.69
2023-10-25T02:35:19.445Z,90.50
2023-10-25T02:37:46.078Z,90.83
2023-10-25T02:40:12.885Z,90.39
2023-10-25T02:42:43.496Z,90.38
2023-10-25T02:45:10.921Z,90.29
2023-10-25T02:47:39.984Z,90.44
2023-10-25T02:50:07.908Z,90.61
2023-10-25T02:52:36.638Z,90.37
2023-10-25T02:55:03.549Z,90.16
2023-10-25T02:57:30.108Z,90.22
2023-10-25T02:59:56.958Z,90.11
2023-10-25T03:02:23.582Z,90.51
2023-10-25T03:04:50.151Z,90.26
2023-10-25T03:07:16.760Z,90.05
2023-10-25T03:09:43.683Z,90.03
2023-10-25T03:12:10.717Z,90.09
2023-10-25T03:14:40.050Z,90.11
2023-10-25T03:17:07.030Z,89.82
2023-10-25T03:19:33.558Z,90.10
2023-10-25T03:22:00.202Z,90.24
2023-10-25T03:24:26.826Z,90.10
2023-10-25T03:26:53.467Z,90.03
2023-10-25T03:29:20.843Z,89.71
2023-10-25T03:31:47.657Z,89.97
2023-10-25T03:34:16.102Z,89.87
2023-10-25T03:36:42.759Z,89.87
2023-10-25T03:39:09.251Z,89.81
2023-10-25T03:41:36.194Z,89.58
2023-10-25T03:44:03.054Z,89.16
2023-10-25T03:46:29.629Z,89.43
2023-10-25T03:48:56.565Z,89.48
2023-10-25T03:51:25.527Z,89.07
2023-10-25T03:53:52.432Z,88.88
2023-10-25T03:56:19.446Z,89.58
2023-10-25T03:58:45.970Z,89.79
2023-10-25T04:01:12.778Z,90.09
2023-10-25T04:03:39.784Z,89.93
2023-10-25T04:06:08.261Z,89.92
2023-10-25T04:08:35.048Z,89.80
2023-10-25T04:11:02.793Z,89.86
2023-10-25T04:13:29.210Z,89.84
2023-10-25T04:16:01.214Z,89.80
2023-10-25T04:18:29.852Z,89.66
2023-10-25T04:20:57.720Z,89.99
2023-10-25T04:23:29.798Z,89.89
2023-10-25T04:26:13.210Z,90.34
2023-10-25T04:28:42.294Z,90.21
2023-10-25T04:31:11.178Z,90.25
2023-10-25T04:33:39.195Z,90.00
2023-10-25T04:36:07.311Z,89.91
2023-10-25T04:38:34.156Z,90.04
2023-10-25T04:41:00.791Z,90.23
2023-10-25T04:43:30.826Z,89.79
2023-10-25T04:46:00.553Z,89.72
2023-10-25T04:48:28.171Z,89.62
2023-10-25T04:50:54.737Z,89.78
2023-10-25T04:53:21.296Z,89.54
2023-10-25T04:55:48.111Z,89.85
2023-10-25T04:58:15.332Z,89.96
2023-10-25T05:00:44.320Z,90.00
2023-10-25T05:03:12.683Z,89.84
2023-10-25T05:05:40.266Z,89.41
2023-10-25T05:08:09.058Z,89.82
2023-10-25T05:10:36.398Z,89.65
2023-10-25T05:13:03.665Z,89.64
2023-10-25T05:15:30.923Z,89.45
2023-10-25T05:17:58.175Z,89.64
2023-10-25T05:20:25.395Z,89.62
2023-10-25T05:22:53.374Z,89.50
2023-10-25T05:25:21.624Z,89.67
2023-10-25T05:27:49.170Z,89.55
2023-10-25T05:30:18.962Z,89.28
2023-10-25T05:32:49.857Z,89.44
2023-10-25T05:35:17.232Z,89.60
2023-10-25T05:37:44.577Z,89.53
2023-10-25T05:40:12.020Z,89.38
2023-10-25T05:42:47.715Z,89.09
2023-10-25T05:45:15.677Z,89.37
2023-10-25T05:47:44.003Z,89.51
2023-10-25T05:50:11.782Z,89.52
2023-10-25T05:52:45.744Z,89.60
2023-10-25T05:55:16.981Z,89.60
2023-10-25T05:57:44.901Z,89.31
2023-10-25T06:00:12.705Z,89.40
2023-10-25T06:02:40.445Z,89.63
2023-10-25T06:07:41.697Z,89.54
2023-10-25T06:10:11.995Z,89.44
2023-10-25T06:12:42.086Z,89.18
2023-10-25T06:15:10.901Z,89.19
2023-10-25T06:17:37.910Z,88.90
2023-10-25T06:20:05.778Z,89.01
2023-10-25T06:22:32.593Z,88.71
2023-10-25T06:24:59.413Z,88.62
2023-10-25T06:27:26.206Z,88.68
2023-10-25T06:29:55.244Z,88.51
2023-10-25T06:32:21.801Z,88.85
2023-10-25T06:34:48.922Z,88.90
2023-10-25T06:37:16.220Z,88.68
2023-10-25T06:39:45.612Z,88.98
2023-10-25T06:42:13.011Z,88.53
2023-10-25T06:44:40.764Z,88.71
2023-10-25T06:47:10.851Z,88.58
2023-10-25T06:49:37.975Z,88.30
2023-10-25T06:52:08.035Z,88.63
2023-10-25T06:54:37.431Z,88.01
2023-10-25T06:57:04.787Z,88.03
2023-10-25T06:59:31.684Z,87.73
2023-10-25T07:02:15.906Z,87.59
2023-10-25T07:04:43.988Z,87.57
2023-10-25T07:07:14.137Z,86.87
2023-10-25T07:09:42.383Z,86.44
2023-10-25T07:12:09.115Z,86.38
2023-10-25T07:14:35.700Z,86.29
2023-10-25T07:17:02.389Z,85.90
2023-10-25T07:19:29.153Z,85.73
2023-10-25T07:21:56.138Z,85.63
2023-10-25T07:24:22.841Z,85.41
2023-10-25T07:26:49.345Z,85.32
2023-10-25T07:29:17.964Z,85.20
2023-10-25T07:31:44.541Z,84.52
2023-10-25T07:34:11.457Z,84.41
2023-10-25T07:36:40.395Z,83.98
2023-10-25T07:39:07.332Z,83.66
2023-10-25T07:41:33.971Z,83.85
2023-10-25T07:44:02.226Z,83.42
2023-10-25T07:46:28.836Z,83.32
2023-10-25T07:48:55.627Z,83.19
2023-10-25T07:51:22.160Z,83.13
2023-10-25T07:53:48.853Z,82.96
2023-10-25T07:58:46.184Z,82.54
2023-10-25T08:01:13.858Z,82.46
2023-10-25T08:03:40.949Z,82.28
2023-10-25T08:06:08.733Z,81.86
2023-10-25T08:08:37.576Z,82.09
2023-10-25T08:11:08.275Z,82.13
2023-10-25T08:13:38.644Z,82.12
2023-10-25T08:16:05.894Z,82.16
2023-10-25T08:18:33.276Z,82.71
2023-10-25T08:21:00.763Z,82.60
2023-10-25T08:23:28.402Z,82.86
2023-10-25T08:25:55.305Z,82.70
2023-10-25T08:28:21.902Z,82.60
2023-10-25T08:30:48.750Z,82.51
2023-10-25T08:33:17.989Z,82.52
2023-10-25T08:35:44.812Z,82.89
2023-10-25T08:38:11.815Z,82.75
2023-10-25T08:40:42.332Z,82.88
2023-10-25T08:43:10.350Z,82.73
2023-10-25T08:45:37.282Z,82.82
2023-10-25T08:48:06.615Z,82.68
2023-10-25T08:50:34.874Z,83.07
2023-10-25T08:53:06.744Z,82.97
2023-10-25T08:55:33.331Z,82.89
2023-10-25T08:57:59.988Z,82.71
2023-10-25T09:00:43.389Z,82.56
2023-10-25T09:03:33.621Z,82.14
2023-10-25T09:06:02.364Z,82.08
2023-10-25T09:08:32.371Z,81.94
2023-10-25T09:11:03.933Z,81.71
2023-10-25T09:13:34.402Z,81.67
2023-10-25T09:16:08.171Z,81.39
2023-10-25T09:18:36.431Z,81.16
2023-10-25T09:21:11.748Z,80.79
2023-10-25T09:23:39.989Z,80.23
2023-10-25T09:26:16.243Z,79.96
2023-10-25T09:28:46.605Z,79.90
2023-10-25T09:31:29.362Z,79.68
2023-10-25T09:34:00.621Z,79.87
2023-10-25T09:36:28.440Z,79.63
2023-10-25T09:38:57.812Z,79.38
2023-10-25T09:41:27.654Z,79.36
2023-10-25T09:43:59.679Z,79.37
2023-10-25T09:46:31.949Z,79.21
2023-10-25T09:49:07.942Z,79.28
2023-10-25T09:51:35.263Z,79.50
2023-10-25T09:54:10.609Z,79.60
2023-10-25T09:56:38.382Z,79.61
2023-10-25T09:59:08.776Z,79.77
2023-10-25T10:01:36.366Z,79.90
2023-10-25T10:04:11.674Z,80.00
2023-10-25T10:06:43.201Z,80.21
2023-10-25T10:09:28.948Z,80.25
2023-10-25T10:12:04.632Z,80.49
2023-10-25T10:14:36.934Z,80.72
2023-10-25T10:17:10.360Z,80.83
2023-10-25T10:19:41.933Z,81.05
2023-10-25T10:22:10.261Z,81.20
2023-10-25T10:24:46.954Z,81.50
2023-10-25T10:27:18.969Z,81.99
2023-10-25T10:29:47.801Z,82.12
2023-10-25T10:32:15.750Z,82.48
2023-10-25T10:34:59.034Z,82.90
2023-10-25T10:37:27.639Z,83.18
2023-10-25T10:39:56.931Z,83.44
2023-10-25T10:42:36.139Z,83.80
2023-10-25T10:45:07.724Z,84.15
2023-10-25T10:47:40.289Z,84.30
2023-10-25T10:50:14.958Z,84.76
2023-10-25T10:52:44.194Z,84.93
2023-10-25T10:55:18.968Z,85.09
2023-10-25T10:58:06.316Z,85.21
2023-10-25T11:00:33.299Z,85.57
2023-10-25T11:03:09.910Z,85.82
2023-10-25T11:05:38.271Z,85.93
2023-10-25T11:08:12.229Z,85.97
2023-10-25T11:10:41.253Z,86.21
2023-10-25T11:13:12.006Z,86.45
2023-10-25T11:15:42.040Z,86.60
2023-10-25T11:18:10.480Z,86.53
2023-10-25T11:20:41.926Z,86.70
2023-10-25T11:23:09.339Z,86.77
2023-10-25T11:25:37.898Z,86.90
2023-10-25T11:28:05.865Z,87.00
2023-10-25T11:30:35.886Z,87.19
2023-10-25T11:33:03.178Z,87.04
2023-10-25T11:35:30.060Z,87.12
2023-10-25T11:37:58.050Z,87.39
2023-10-25T11:40:42.329Z,87.43
2023-10-25T11:43:09.853Z,87.52
2023-10-25T11:45:38.668Z,87.66
2023-10-25T11:48:07.334Z,87.77
2023-10-25T11:50:34.835Z,87.75
2023-10-25T11:53:01.609Z,87.92
2023-10-25T11:55:37.048Z,88.03
2023-10-25T11:58:05.098Z,88.05
2023-10-25T12:00:32.129Z,88.15
2023-10-25T12:02:58.714Z,88.36
2023-10-25T12:05:26.332Z,88.45
2023-10-25T12:07:54.622Z,88.47
2023-10-25T12:10:23.198Z,88.52
2023-10-25T12:12:49.732Z,88.77
2023-10-25T12:15:16.410Z,88.65
2023-10-25T12:17:47.246Z,88.83
2023-10-25T12:20:26.885Z,88.96
2023-10-25T12:22:55.756Z,88.87
2023-10-25T12:25:22.879Z,89.04
2023-10-25T12:27:49.715Z,89.00
2023-10-25T12:30:16.353Z,88.94
2023-10-25T12:32:43.034Z,89.11
2023-10-25T12:35:09.761Z,89.22
2023-10-25T12:37:36.463Z,89.19
2023-10-25T12:40:05.629Z,89.07
2023-10-25T12:42:32.101Z,89.20
2023-10-25T12:45:00.698Z,89.29
2023-10-25T12:47:27.339Z,89.16
2023-10-25T12:49:56.085Z,89.21
2023-10-25T12:52:22.809Z,89.07
2023-10-25T12:54:49.679Z,89.25
2023-10-25T12:57:16.125Z,89.10
2023-10-25T12:59:42.714Z,89.11
2023-10-25T13:02:09.864Z,89.01
2023-10-25T13:04:39.134Z,89.11
2023-10-25T13:07:07.019Z,89.22
2023-10-25T13:09:36.391Z,89.28
2023-10-25T13:12:06.598Z,89.24
2023-10-25T13:14:35.702Z,89.17
2023-10-25T13:17:16.545Z,89.28
2023-10-25T13:19:46.724Z,89.11
2023-10-25T13:22:13.327Z,88.96
2023-10-25T13:24:39.838Z,88.93
2023-10-25T13:27:06.478Z,88.93
2023-10-25T13:29:35.803Z,88.90
2023-10-25T13:32:02.339Z,89.01
2023-10-25T13:34:31.553Z,88.92
2023-10-25T13:37:00.329Z,89.07
2023-10-25T13:39:27.010Z,89.07
2023-10-25T13:41:53.564Z,89.23
2023-10-25T13:44:20.577Z,89.32
2023-10-25T13:46:47.259Z,89.29
2023-10-25T13:49:16.592Z,89.19
2023-10-25T13:51:44.016Z,89.20
2023-10-25T13:54:10.910Z,89.31
2023-10-25T13:56:38.358Z,89.45
2023-10-25T13:59:04.980Z,89.43
2023-10-25T14:01:31.970Z,89.36
2023-10-25T14:03:58.691Z,89.43
2023-10-25T14:06:28.465Z,89.33
2023-10-25T14:08:55.385Z,89.47
2023-10-25T14:11:22.968Z,89.38
2023-10-25T14:13:51.422Z,89.48
2023-10-25T14:16:18.654Z,89.50
2023-10-25T14:18:47.233Z,89.61
2023-10-25T14:21:17.446Z,89.51
2023-10-25T14:23:47.494Z,89.19
2023-10-25T14:26:15.673Z,89.02
2023-10-25T14:28:44.679Z,89.15
2023-10-25T14:31:17.389Z,88.86
2023-10-25T14:33:44.559Z,88.95
2023-10-25T14:36:15.516Z,88.97
2023-10-25T14:38:42.350Z,88.83
2023-10-25T14:41:09.888Z,89.14
2023-10-25T14:43:38.593Z,89.21
2023-10-25T14:46:14.204Z,89.24
2023-10-25T14:48:41.945Z,89.55
2023-10-25T14:51:21.568Z,89.61
2023-10-25T14:53:50.199Z,89.80
2023-10-25T14:56:16.829Z,89.94
2023-10-25T14:58:43.424Z,90.05
2023-10-25T15:01:25.141Z,90.04
2023-10-25T15:03:53.973Z,90.35
2023-10-25T15:06:26.673Z,90.47
2023-10-25T15:08:54.421Z,90.51
2023-10-25T15:11:21.042Z,90.77
2023-10-25T15:13:47.561Z,90.73
2023-10-25T15:16:14.206Z,90.79
2023-10-25T15:18:44.782Z,90.85
2023-10-25T15:21:16.406Z,90.94
2023-10-25T15:23:43.116Z,90.93
2023-10-25T15:26:11.048Z,90.93
2023-10-25T15:28:38.307Z,91.06
2023-10-25T15:31:13.497Z,91.17
2023-10-25T15:33:41.020Z,91.56
2023-10-25T15:36:08.260Z,91.73
2023-10-25T15:38:38.583Z,91.81
2023-10-25T15:41:28.265Z,91.91
2023-10-25T15:43:55.291Z,92.09
2023-10-25T15:46:24.189Z,92.16
2023-10-25T15:48:52.417Z,92.42
2023-10-25T15:51:20.049Z,92.79
2023-10-25T15:53:47.029Z,93.04
2023-10-25T15:56:14.821Z,93.15
2023-10-25T15:58:41.802Z,93.35
2023-10-25T16:01:10.120Z,93.68
2023-10-25T16:03:38.793Z,93.88
2023-10-25T16:06:09.051Z,93.98
2023-10-25T16:08:38.958Z,94.05
2023-10-25T16:11:07.315Z,94.25
2023-10-25T16:13:34.587Z,94.44
2023-10-25T16:16:01.712Z,94.67
2023-10-25T16:18:28.321Z,94.64
2023-10-25T16:20:55.113Z,94.77
2023-10-25T16:23:21.644Z,94.99
2023-10-25T16:25:48.175Z,95.08
2023-10-25T16:28:14.685Z,95.14
2023-10-25T16:30:41.832Z,95.18
2023-10-25T16:33:08.528Z,95.27
2023-10-25T16:35:39.569Z,95.25
2023-10-25T16:38:10.926Z,95.47
2023-10-25T16:40:39.187Z,95.46
2023-10-25T16:43:08.779Z,95.47
2023-10-25T16:45:35.520Z,95.67
2023-10-25T16:48:05.122Z,95.60
2023-10-25T16:50:35.814Z,95.56
2023-10-25T16:53:03.128Z,95.68
2023-10-25T16:55:30.120Z,95.83
2023-10-25T16:57:56.620Z,95.73
2023-10-25T17:00:23.264Z,95.88
2023-10-25T17:02:50.255Z,95.73
2023-10-25T17:05:17.606Z,95.77
2023-10-25T17:07:44.798Z,95.69
2023-10-25T17:10:11.723Z,95.62
2023-10-25T17:12:38.292Z,95.62
2023-10-25T17:15:06.027Z,95.61
2023-10-25T17:17:32.816Z,95.53
2023-10-25T17:19:59.443Z,95.37
2023-10-25T17:22:26.684Z,95.24
2023-10-25T17:24:53.253Z,95.16
2023-10-25T17:27:20.236Z,95.29
2023-10-25T17:29:47.119Z,95.08
2023-10-25T17:32:14.605Z,95.03
2023-10-25T17:34:41.957Z,94.98
2023-10-25T17:37:08.825Z,95.07
2023-10-25T17:39:35.354Z,95.00
2023-10-25T17:42:02.958Z,95.02
2023-10-25T17:44:29.786Z,94.85
2023-10-25T17:46:56.959Z,94.91
2023-10-25T17:49:24.031Z,94.81
2023-10-25T17:51:51.284Z,94.85
2023-10-25T17:54:18.791Z,94.71
2023-10-25T17:56:45.577Z,94.60
2023-10-25T17:59:12.306Z,94.57
2023-10-25T18:01:38.889Z,94.55
2023-10-25T18:04:06.175Z,94.59
2023-10-25T18:06:43.192Z,94.47
2023-10-25T18:09:16.700Z,94.50
2023-10-25T18:11:46.814Z,94.53
2023-10-25T18:14:15.649Z,94.51
2023-10-25T18:16:42.349Z,94.39
2023-10-25T18:19:09.040Z,94.23
2023-10-25T18:21:35.657Z,94.20
2023-10-25T18:24:02.814Z,94.17
2023-10-25T18:26:31.870Z,94.00
2023-10-25T18:29:00.813Z,94.04
2023-10-25T18:32:21.352Z,93.85
2023-10-25T18:34:14.872Z,93.74
2023-10-25T18:36:41.580Z,93.73
2023-10-25T18:39:08.172Z,93.76
2023-10-25T18:41:35.308Z,93.43
2023-10-25T18:44:02.122Z,93.42
2023-10-25T18:46:29.248Z,93.24
2023-10-25T18:48:55.830Z,93.06
2023-10-25T18:51:22.476Z,93.20
2023-10-25T18:53:50.269Z,93.31
2023-10-25T18:56:17.003Z,93.15
2023-10-25T18:58:43.542Z,93.10
2023-10-25T19:01:15.987Z,93.24
2023-10-25T19:03:51.229Z,93.34
2023-10-25T19:06:33.523Z,93.42
2023-10-25T19:09:04.034Z,93.33
2023-10-25T19:11:31.713Z,93.33
2023-10-25T19:13:58.803Z,93.32
2023-10-25T19:16:27.172Z,93.50
2023-10-25T19:18:56.104Z,93.37
2023-10-25T19:21:22.774Z,93.41
2023-10-25T19:23:54.133Z,93.64
2023-10-25T19:26:23.065Z,93.53
2023-10-25T19:28:51.767Z,93.57
2023-10-25T19:31:18.452Z,93.40
2023-10-25T19:33:45.403Z,93.37
2023-10-25T19:36:16.335Z,93.36
2023-10-25T19:38:43.045Z,93.38
2023-10-25T19:41:09.849Z,93.48
2023-10-25T19:43:39.220Z,93.54
2023-10-25T19:46:06.241Z,93.60
2023-10-25T19:48:33.203Z,93.65
2023-10-25T19:50:59.832Z,93.71
2023-10-25T19:53:26.478Z,93.76
2023-10-25T19:55:53.752Z,93.82
2023-10-25T19:58:20.940Z,93.94
2023-10-25T20:00:47.428Z,94.04
2023-10-25T20:03:14.257Z,94.10
2023-10-25T20:05:41.392Z,94.21
2023-10-25T20:08:08.410Z,94.34
2023-10-25T20:10:34.925Z,94.42
2023-10-25T20:13:01.409Z,94.64
2023-10-25T20:15:32.109Z,94.76
2023-10-25T20:17:59.152Z,94.79
2023-10-25T20:20:25.816Z,95.12
2023-10-25T20:22:55.377Z,95.20
2023-10-25T20:25:21.942Z,95.28
2023-10-25T20:27:48.510Z,95.43
2023-10-25T20:30:15.434Z,95.35
2023-10-25T20:32:43.412Z,95.44
2023-10-25T20:35:10.056Z,95.39
2023-10-25T20:37:37.420Z,95.53
2023-10-25T20:40:04.960Z,95.29
2023-10-25T20:42:31.554Z,95.18
2023-10-25T20:44:58.196Z,95.09
2023-10-25T20:47:25.153Z,95.09
2023-10-25T20:49:52.298Z,94.97
2023-10-25T20:52:19.232Z,95.09
2023-10-25T20:54:45.942Z,95.09
2023-10-25T20:57:13.026Z,95.18
2023-10-25T20:59:39.688Z,95.12
2023-10-25T21:02:06.536Z,95.00
2023-10-25T21:04:33.631Z,95.02
2023-10-25T21:07:02.497Z,94.87
2023-10-25T21:09:29.293Z,94.87
2023-10-25T21:11:56.203Z,94.70
2023-10-25T21:14:23.082Z,94.74
2023-10-25T21:16:49.643Z,94.56
2023-10-25T21:19:16.188Z,94.52
2023-10-25T21:21:43.696Z,94.37
2023-10-25T21:24:10.325Z,94.10
2023-10-25T21:26:36.873Z,93.90
2023-10-25T21:29:03.627Z,93.78
2023-10-25T21:31:32.047Z,93.54
2023-10-25T21:33:58.618Z,93.27
2023-10-25T21:36:26.870Z,92.99
2023-10-25T21:38:55.731Z,92.55
2023-10-25T21:41:22.301Z,92.49
2023-10-25T21:43:49.090Z,92.26
2023-10-25T21:46:15.822Z,91.65
2023-10-25T21:48:42.672Z,91.13
2023-10-25T21:51:12.299Z,91.25
2023-10-25T21:53:39.591Z,90.78
2023-10-25T21:56:24.261Z,90.61
2023-10-25T21:59:51.835Z,90.21
2023-10-25T22:01:47.067Z,89.78
2023-10-25T22:04:16.228Z,88.92
2023-10-25T22:06:49.385Z,88.42
2023-10-25T22:09:19.278Z,88.56
2023-10-25T22:11:46.984Z,88.14
2023-10-25T22:14:14.558Z,88.16
2023-10-25T22:16:42.276Z,87.34
2023-10-25T22:19:12.258Z,87.07
2023-10-25T22:21:39.122Z,87.03
2023-10-25T22:24:06.930Z,86.84
2023-10-25T22:26:36.772Z,86.76
2023-10-25T22:29:16.130Z,86.52
2023-10-25T22:31:45.057Z,86.76
2023-10-25T22:34:13.262Z,86.66
2023-10-25T22:36:43.532Z,86.40
2023-10-25T22:39:10.437Z,86.59
2023-10-25T22:41:37.357Z,86.93
2023-10-25T22:44:06.410Z,86.46
2023-10-25T22:46:32.920Z,86.60
2023-10-25T22:48:59.468Z,86.52
2023-10-25T22:51:26.188Z,86.61
2023-10-25T22:53:52.838Z,86.80
2023-10-25T22:56:19.585Z,86.74
2023-10-25T22:58:46.119Z,86.57
2023-10-25T23:01:12.618Z,86.40
2023-10-25T23:03:39.147Z,86.06
2023-10-25T23:06:05.959Z,85.99
2023-10-25T23:08:32.716Z,85.35
2023-10-25T23:10:59.646Z,85.38
2023-10-25T23:13:26.507Z,85.40
2023-10-25T23:15:53.986Z,85.11
2023-10-25T23:18:20.624Z,85.17
2023-10-25T23:20:53.344Z,84.70
2023-10-25T23:23:19.989Z,84.39
2023-10-25T23:25:46.687Z,84.83
2023-10-25T23:28:13.404Z,84.94
2023-10-25T23:30:40.989Z,84.97
2023-10-25T23:33:07.927Z,85.22
2023-10-25T23:35:34.738Z,85.36
2023-10-25T23:38:01.552Z,85.56
2023-10-25T23:40:28.083Z,85.65
2023-10-25T23:42:54.691Z,85.63
2023-10-25T23:45:21.284Z,85.69
2023-10-25T23:47:49.937Z,85.64
2023-10-25T23:50:16.954Z,85.61
2023-10-25T23:52:46.231Z,85.34
2023-10-25T23:55:14.587Z,85.06
2023-10-25T23:57:42.106Z,85.31
